Time;durP1;ratioP1;P1;durP2;ratioP2;P2;SDS_P1;SDS_P2;PMS_P1;PMS_P2;Temp;Humidity;BMP_temperature;BMP_pressure;BME280_temperature;BME280_humidity;BME280_pressure;Samples;Min_cycle;Max_cycle;Signal;HPM_P1;HPM_P2
2022/02/20 00:01:14;;;;;;;6.57;2.60;;;4.10;99.90;;;;;;4457213;32;20160;-76
2022/02/20 00:03:41;;;;;;;7.93;2.73;;;4.10;99.90;;;;;;4455784;32;20164;-76
2022/02/20 00:06:08;;;;;;;7.47;2.40;;;4.10;99.90;;;;;;4457456;32;20189;-76
2022/02/20 00:08:35;;;;;;;6.00;2.20;;;4.00;99.90;;;;;;4454024;32;20167;-76
2022/02/20 00:11:02;;;;;;;6.53;2.50;;;4.00;99.90;;;;;;4452857;32;20254;-76
2022/02/20 00:13:29;;;;;;;9.20;2.70;;;4.00;99.90;;;;;;4454227;32;20179;-76
2022/02/20 00:15:57;;;;;;;6.73;2.50;;;4.00;99.90;;;;;;4456493;32;20170;-76
2022/02/20 00:18:23;;;;;;;5.20;2.70;;;4.00;99.90;;;;;;4449550;32;20533;-76
2022/02/20 00:20:51;;;;;;;8.23;2.30;;;3.90;99.90;;;;;;4442463;32;20201;-76
2022/02/20 00:23:18;;;;;;;6.13;2.30;;;3.90;99.90;;;;;;4440161;32;20516;-76
2022/02/20 00:25:46;;;;;;;7.33;2.70;;;3.80;99.90;;;;;;4441794;32;20147;-77
2022/02/20 00:28:14;;;;;;;7.57;2.73;;;3.90;99.90;;;;;;4441732;32;20159;-76
2022/02/20 00:30:42;;;;;;;4.63;2.30;;;3.80;99.90;;;;;;4439318;32;20445;-76
2022/02/20 00:33:09;;;;;;;7.53;2.50;;;3.80;99.90;;;;;;4438964;32;20543;-76
2022/02/20 00:35:36;;;;;;;5.97;2.30;;;3.80;99.90;;;;;;4440461;32;20231;-76
2022/02/20 00:38:05;;;;;;;5.57;2.30;;;3.80;99.90;;;;;;4440430;32;20175;-75
2022/02/20 00:40:32;;;;;;;5.00;2.20;;;3.80;99.90;;;;;;4438941;32;20491;-75
2022/02/20 00:43:00;;;;;;;5.50;2.20;;;3.70;99.90;;;;;;4439618;32;20167;-75
2022/02/20 00:45:29;;;;;;;7.30;2.60;;;3.70;99.90;;;;;;4438642;32;20167;-76
2022/02/20 00:47:56;;;;;;;9.00;2.70;;;3.70;99.90;;;;;;4440248;32;20208;-75
2022/02/20 00:50:24;;;;;;;9.13;2.70;;;3.60;99.90;;;;;;4442134;32;20148;-76
2022/02/20 00:52:51;;;;;;;6.10;2.93;;;3.60;99.90;;;;;;4445251;32;20202;-75
2022/02/20 00:55:19;;;;;;;7.60;2.70;;;3.60;99.90;;;;;;4439116;32;20174;-76
2022/02/20 00:57:46;;;;;;;8.50;2.70;;;3.50;99.90;;;;;;4448495;32;20174;-76
2022/02/20 01:00:14;;;;;;;8.70;3.07;;;3.50;99.90;;;;;;4438587;32;20171;-76
2022/02/20 01:02:41;;;;;;;8.07;2.70;;;3.40;99.90;;;;;;4438921;32;20230;-76
2022/02/20 01:05:10;;;;;;;8.67;2.73;;;3.30;99.90;;;;;;4440407;32;20504;-76
2022/02/20 01:07:37;;;;;;;7.53;2.87;;;3.30;99.90;;;;;;4437967;32;20175;-76
2022/02/20 01:10:06;;;;;;;6.70;2.60;;;3.30;99.90;;;;;;4438608;32;20224;-76
2022/02/20 01:12:33;;;;;;;7.40;2.63;;;3.20;99.90;;;;;;4438378;32;20182;-76
2022/02/20 01:15:00;;;;;;;7.93;2.70;;;3.20;99.90;;;;;;4438821;32;20178;-77
2022/02/20 01:17:28;;;;;;;5.63;2.50;;;3.10;99.90;;;;;;4440618;32;20161;-76
2022/02/20 01:19:55;;;;;;;6.43;3.27;;;3.10;99.90;;;;;;4438998;32;20193;-76
2022/02/20 01:22:22;;;;;;;8.13;2.80;;;3.00;99.90;;;;;;4439697;32;20190;-77
2022/02/20 01:24:49;;;;;;;11.93;2.83;;;3.00;99.90;;;;;;4440808;32;20170;-76
2022/02/20 01:27:16;;;;;;;9.47;3.07;;;2.90;99.90;;;;;;4440242;32;20139;-77
2022/02/20 01:29:43;;;;;;;11.17;2.93;;;2.90;99.90;;;;;;4439999;32;20202;-77
2022/02/20 01:32:10;;;;;;;6.60;3.10;;;2.90;99.90;;;;;;4437610;32;20461;-77
2022/02/20 01:34:36;;;;;;;9.47;2.80;;;2.80;99.90;;;;;;4446123;32;20218;-76
2022/02/20 01:37:03;;;;;;;9.53;2.97;;;2.80;99.90;;;;;;4440793;32;20191;-77
2022/02/20 01:39:31;;;;;;;7.60;2.80;;;2.80;99.90;;;;;;4440104;32;20239;-77
2022/02/20 01:41:58;;;;;;;10.23;3.10;;;2.70;99.90;;;;;;4445634;32;20154;-78
2022/02/20 01:44:25;;;;;;;9.37;3.00;;;2.70;99.90;;;;;;4443140;32;20156;-77
2022/02/20 01:47:00;;;;;;;8.97;2.70;;;2.80;99.90;;;;;;4438029;32;20171;-77
2022/02/20 01:49:27;;;;;;;7.67;2.90;;;2.70;99.90;;;;;;4438163;32;20501;-77
2022/02/20 01:51:54;;;;;;;6.53;2.97;;;2.70;99.90;;;;;;4439360;32;20431;-76
2022/02/20 01:54:20;;;;;;;7.37;2.90;;;2.70;99.90;;;;;;4438218;32;20178;-76
2022/02/20 01:56:48;;;;;;;5.63;2.97;;;2.70;99.90;;;;;;4439537;32;20596;-76
2022/02/20 01:59:17;;;;;;;7.77;2.90;;;2.70;99.90;;;;;;4439423;32;20189;-76
2022/02/20 02:01:44;;;;;;;6.57;2.70;;;2.60;99.90;;;;;;4439315;32;20247;-76
2022/02/20 02:04:11;;;;;;;6.60;2.73;;;2.60;99.90;;;;;;4438104;32;20200;-76
2022/02/20 02:06:38;;;;;;;6.70;2.53;;;2.60;99.90;;;;;;4439706;32;20194;-76
2022/02/20 02:09:05;;;;;;;7.37;2.80;;;2.60;99.90;;;;;;4438763;32;20170;-76
2022/02/20 02:11:32;;;;;;;8.50;2.57;;;2.50;99.90;;;;;;4438663;32;20271;-76
2022/02/20 02:13:59;;;;;;;7.23;2.57;;;2.50;99.90;;;;;;4438563;32;20237;-76
2022/02/20 02:16:26;;;;;;;10.40;2.90;;;2.50;99.90;;;;;;4439392;32;20207;-76
2022/02/20 02:18:53;;;;;;;5.83;2.50;;;2.50;99.90;;;;;;4439358;32;20217;-76
2022/02/20 02:21:20;;;;;;;11.10;2.80;;;2.50;99.90;;;;;;4438378;32;20197;-76
2022/02/20 02:23:47;;;;;;;9.10;2.60;;;2.50;99.90;;;;;;4437613;32;20186;-75
2022/02/20 02:26:15;;;;;;;10.67;2.60;;;2.50;99.90;;;;;;4442994;32;20189;-76
2022/02/20 02:28:42;;;;;;;7.93;2.70;;;2.50;99.90;;;;;;4442234;32;20201;-76
2022/02/20 02:31:12;;;;;;;6.40;2.60;;;2.50;99.90;;;;;;4438366;32;20182;-76
2022/02/20 02:33:39;;;;;;;7.27;2.50;;;2.40;99.90;;;;;;4438072;32;20235;-76
2022/02/20 02:36:08;;;;;;;5.30;2.50;;;2.40;99.90;;;;;;4440591;32;20143;-76
2022/02/20 02:38:35;;;;;;;6.20;2.50;;;2.50;99.90;;;;;;4440145;32;20506;-76
2022/02/20 02:41:06;;;;;;;5.43;2.57;;;2.50;99.90;;;;;;4439343;32;20235;-76
2022/02/20 02:43:34;;;;;;;8.03;2.60;;;2.50;99.90;;;;;;4440489;32;20163;-76
2022/02/20 02:46:03;;;;;;;8.73;2.60;;;2.50;99.90;;;;;;4442604;32;20183;-76
2022/02/20 02:48:30;;;;;;;6.30;2.70;;;2.50;99.90;;;;;;4442116;32;20178;-77
2022/02/20 02:50:59;;;;;;;6.60;2.60;;;2.40;99.90;;;;;;4440533;32;20548;-76
2022/02/20 02:53:26;;;;;;;8.73;3.10;;;2.40;99.90;;;;;;4441586;32;20177;-76
2022/02/20 02:55:53;;;;;;;7.73;2.63;;;2.40;99.90;;;;;;4441079;32;20183;-76
2022/02/20 02:58:23;;;;;;;7.97;2.70;;;2.50;99.90;;;;;;4440999;32;20194;-76
2022/02/20 03:00:52;;;;;;;6.70;2.67;;;2.50;99.90;;;;;;4448232;32;20204;-76
2022/02/20 03:03:19;;;;;;;7.47;3.00;;;2.40;99.90;;;;;;4443041;32;20212;-76
2022/02/20 03:05:47;;;;;;;6.73;2.77;;;2.40;99.90;;;;;;4440391;32;20216;-76
2022/02/20 03:08:14;;;;;;;6.77;2.70;;;2.40;99.90;;;;;;4442316;32;20220;-76
2022/02/20 03:10:41;;;;;;;6.20;2.73;;;2.40;99.90;;;;;;4441970;32;20174;-76
2022/02/20 03:13:08;;;;;;;9.10;2.50;;;2.40;99.90;;;;;;4441990;32;20206;-76
2022/02/20 03:15:35;;;;;;;6.13;2.50;;;2.40;99.90;;;;;;4441882;32;20135;-76
2022/02/20 03:18:02;;;;;;;6.53;2.50;;;2.30;99.90;;;;;;4441336;32;20229;-76
2022/02/20 03:20:29;;;;;;;8.30;2.90;;;2.30;99.90;;;;;;4441642;32;20174;-76
2022/02/20 03:22:56;;;;;;;8.90;3.20;;;2.30;99.90;;;;;;4441594;32;20212;-76
2022/02/20 03:25:23;;;;;;;9.17;2.83;;;2.30;99.90;;;;;;4441495;32;20198;-75
2022/02/20 03:27:50;;;;;;;7.10;2.97;;;2.20;99.90;;;;;;4446229;32;20245;-76
2022/02/20 03:30:17;;;;;;;11.80;3.17;;;2.20;99.90;;;;;;4443284;32;20178;-76
2022/02/20 03:32:44;;;;;;;8.43;2.90;;;2.20;99.90;;;;;;4439486;32;20269;-76
2022/02/20 03:35:11;;;;;;;6.50;2.90;;;2.20;99.90;;;;;;4440146;32;20170;-76
2022/02/20 03:37:39;;;;;;;7.23;2.90;;;2.20;99.90;;;;;;4440038;32;20253;-76
2022/02/20 03:40:06;;;;;;;9.53;3.00;;;2.10;99.90;;;;;;4440015;32;20203;-76
2022/02/20 03:42:34;;;;;;;10.83;3.37;;;2.20;99.90;;;;;;4439612;32;20169;-76
2022/02/20 03:45:01;;;;;;;10.37;3.30;;;2.20;99.90;;;;;;4440042;32;20227;-76
2022/02/20 03:47:29;;;;;;;6.50;2.90;;;2.20;99.90;;;;;;4441226;32;20250;-76
2022/02/20 03:49:56;;;;;;;9.53;3.27;;;2.20;99.90;;;;;;4441247;32;20174;-76
2022/02/20 03:52:23;;;;;;;8.20;3.13;;;2.20;99.90;;;;;;4441423;32;20158;-76
2022/02/20 03:54:50;;;;;;;8.57;2.93;;;2.20;99.90;;;;;;4440154;32;20186;-76
2022/02/20 03:57:17;;;;;;;9.83;2.90;;;2.20;99.90;;;;;;4440096;32;20166;-76
2022/02/20 03:59:45;;;;;;;9.67;3.27;;;2.20;99.90;;;;;;4441796;32;20180;-76
2022/02/20 04:02:12;;;;;;;7.67;3.10;;;2.20;99.90;;;;;;4440454;32;20413;-76
2022/02/20 04:04:39;;;;;;;11.00;3.10;;;2.30;99.90;;;;;;4440483;32;20216;-76
2022/02/20 04:07:06;;;;;;;7.93;3.10;;;2.20;99.90;;;;;;4440923;32;20488;-76
2022/02/20 04:09:33;;;;;;;8.00;2.80;;;2.30;99.90;;;;;;4440925;32;20473;-76
2022/02/20 04:12:00;;;;;;;9.57;3.03;;;2.30;99.90;;;;;;4439396;32;20420;-76
2022/02/20 04:14:28;;;;;;;8.07;3.07;;;2.20;99.90;;;;;;4440576;32;20415;-76
2022/02/20 04:16:55;;;;;;;7.60;3.00;;;2.20;99.90;;;;;;4440375;32;20197;-76
2022/02/20 04:19:22;;;;;;;6.60;3.07;;;2.30;99.90;;;;;;4440759;32;20202;-76
2022/02/20 04:21:49;;;;;;;6.67;2.90;;;2.30;99.90;;;;;;4440785;32;20150;-77
2022/02/20 04:24:16;;;;;;;9.63;3.03;;;2.30;99.90;;;;;;4439979;32;20170;-76
2022/02/20 04:26:43;;;;;;;8.03;2.87;;;2.30;99.90;;;;;;4440572;32;20218;-76
2022/02/20 04:29:10;;;;;;;8.03;2.90;;;2.30;99.90;;;;;;4438971;32;20179;-76
2022/02/20 04:31:37;;;;;;;7.07;2.80;;;2.30;99.90;;;;;;4438894;32;20175;-76
2022/02/20 04:34:04;;;;;;;7.90;3.40;;;2.30;99.90;;;;;;4439850;32;20217;-76
2022/02/20 04:36:37;;;;;;;13.10;3.00;;;2.30;99.90;;;;;;4440033;32;20178;-76
2022/02/20 04:39:06;;;;;;;8.33;2.90;;;2.30;99.90;;;;;;4440853;32;20140;-76
2022/02/20 04:41:33;;;;;;;6.93;3.20;;;2.30;99.90;;;;;;4439511;32;20174;-76
2022/02/20 04:44:00;;;;;;;9.07;2.93;;;2.30;99.90;;;;;;4438545;32;20170;-77
2022/02/20 04:46:27;;;;;;;7.23;2.83;;;2.30;99.90;;;;;;4440589;32;20190;-76
2022/02/20 04:48:54;;;;;;;9.93;3.33;;;2.30;99.90;;;;;;4438591;32;20190;-76
2022/02/20 04:51:21;;;;;;;7.17;2.97;;;2.30;99.90;;;;;;4440697;32;20203;-76
2022/02/20 04:53:48;;;;;;;10.23;3.30;;;2.30;99.90;;;;;;4440285;32;20427;-76
2022/02/20 04:56:15;;;;;;;10.30;3.30;;;2.30;99.90;;;;;;4440633;32;20194;-76
2022/02/20 04:58:42;;;;;;;7.63;3.33;;;2.30;99.90;;;;;;4440164;32;20232;-76
2022/02/20 05:01:09;;;;;;;7.73;2.80;;;2.30;99.90;;;;;;4439809;32;20186;-76
2022/02/20 05:03:36;;;;;;;10.77;3.20;;;2.30;99.90;;;;;;4439998;32;20453;-76
2022/02/20 05:06:04;;;;;;;10.57;3.10;;;2.30;99.90;;;;;;4440245;32;20269;-76
2022/02/20 05:08:31;;;;;;;9.00;3.40;;;2.30;99.90;;;;;;4438762;32;20441;-76
2022/02/20 05:10:58;;;;;;;7.97;2.87;;;2.30;99.90;;;;;;4438973;32;20245;-76
2022/02/20 05:13:25;;;;;;;7.00;3.07;;;2.40;99.90;;;;;;4438165;32;20209;-76
2022/02/20 05:15:51;;;;;;;7.90;3.00;;;2.40;99.90;;;;;;4438251;32;20227;-76
2022/02/20 05:18:18;;;;;;;9.93;3.33;;;2.40;99.90;;;;;;4439340;32;20205;-76
2022/02/20 05:20:54;;;;;;;7.13;3.57;;;2.40;99.90;;;;;;4440290;32;20233;-76
2022/02/20 05:23:22;;;;;;;9.47;3.33;;;2.40;99.90;;;;;;4439396;32;20150;-76
2022/02/20 05:25:50;;;;;;;10.53;3.67;;;2.50;99.90;;;;;;4438913;32;20220;-76
2022/02/20 05:28:18;;;;;;;9.50;3.90;;;2.50;99.90;;;;;;4439584;32;20270;-76
2022/02/20 05:30:45;;;;;;;9.13;3.23;;;2.40;99.90;;;;;;4437968;32;20556;-76
2022/02/20 05:33:12;;;;;;;9.63;3.40;;;2.40;99.90;;;;;;4438926;32;20170;-76
2022/02/20 05:35:39;;;;;;;12.57;3.33;;;2.50;99.90;;;;;;4438948;32;20171;-76
2022/02/20 05:38:06;;;;;;;9.00;3.47;;;2.50;99.90;;;;;;4439569;32;20193;-76
2022/02/20 05:40:33;;;;;;;10.90;3.53;;;2.50;99.90;;;;;;4439483;32;20174;-76
2022/02/20 05:43:01;;;;;;;9.50;3.60;;;2.50;99.90;;;;;;4439897;32;20174;-76
2022/02/20 05:45:28;;;;;;;8.70;3.43;;;2.50;99.90;;;;;;4439586;32;20170;-76
2022/02/20 05:47:55;;;;;;;9.17;3.70;;;2.50;99.90;;;;;;4438025;32;20517;-76
2022/02/20 05:50:22;;;;;;;12.33;4.20;;;2.50;99.90;;;;;;4438652;32;20197;-76
2022/02/20 05:52:49;;;;;;;11.63;3.90;;;2.50;99.90;;;;;;4439778;32;20178;-76
2022/02/20 05:55:16;;;;;;;9.50;4.00;;;2.50;99.90;;;;;;4438325;32;20171;-76
2022/02/20 05:57:52;;;;;;;12.03;3.47;;;2.50;99.90;;;;;;4438111;32;20174;-76
2022/02/20 06:00:23;;;;;;;7.57;3.80;;;2.40;99.90;;;;;;4438278;32;20525;-76
2022/02/20 06:02:50;;;;;;;10.07;3.80;;;2.40;99.90;;;;;;4438342;32;20190;-76
2022/02/20 06:05:17;;;;;;;11.43;4.03;;;2.40;99.90;;;;;;4438748;32;20218;-76
2022/02/20 06:07:44;;;;;;;12.40;4.03;;;2.40;99.90;;;;;;4438681;32;20238;-76
2022/02/20 06:10:12;;;;;;;10.70;3.83;;;2.40;99.90;;;;;;4438650;32;20178;-76
2022/02/20 06:12:44;;;;;;;12.37;4.30;;;2.40;99.90;;;;;;4439538;32;20587;-76
2022/02/20 06:15:12;;;;;;;9.93;4.20;;;2.50;99.90;;;;;;4437760;32;20200;-76
2022/02/20 06:17:39;;;;;;;11.03;4.20;;;2.40;99.90;;;;;;4439230;32;20166;-76
2022/02/20 06:20:06;;;;;;;9.93;4.13;;;2.50;99.90;;;;;;4443061;32;20134;-76
2022/02/20 06:22:34;;;;;;;11.70;4.47;;;2.50;99.90;;;;;;4442802;32;20178;-76
2022/02/20 06:25:01;;;;;;;12.30;4.17;;;2.60;99.90;;;;;;4442443;32;20188;-76
2022/02/20 06:27:29;;;;;;;12.30;3.87;;;2.60;99.90;;;;;;4442936;32;20169;-76
2022/02/20 06:30:16;;;;;;;10.07;3.73;;;2.50;99.90;;;;;;4443047;32;20176;-76
2022/02/20 06:32:43;;;;;;;10.87;3.70;;;2.60;99.90;;;;;;4441676;32;20240;-75
2022/02/20 06:35:10;;;;;;;9.23;4.17;;;2.60;99.90;;;;;;4441639;32;20261;-75
2022/02/20 06:37:38;;;;;;;10.73;4.10;;;2.60;99.90;;;;;;4440647;32;20231;-76
2022/02/20 06:40:06;;;;;;;12.10;4.20;;;2.70;99.90;;;;;;4441259;32;20166;-76
2022/02/20 06:42:33;;;;;;;9.87;4.07;;;2.60;99.90;;;;;;4449381;32;20232;-76
2022/02/20 06:45:00;;;;;;;12.00;4.33;;;2.70;99.90;;;;;;4442778;32;20205;-76
2022/02/20 06:47:28;;;;;;;8.60;3.83;;;2.70;99.90;;;;;;4440351;32;20194;-76
2022/02/20 06:49:55;;;;;;;12.40;4.07;;;2.70;99.90;;;;;;4441529;32;20167;-76
2022/02/20 06:52:22;;;;;;;9.43;3.93;;;2.70;99.90;;;;;;4441463;32;20198;-76
2022/02/20 06:54:49;;;;;;;10.13;4.03;;;2.70;99.90;;;;;;4441684;32;20234;-76
2022/02/20 06:57:16;;;;;;;9.70;4.00;;;2.70;99.90;;;;;;4442032;32;20171;-76
2022/02/20 06:59:43;;;;;;;9.80;4.13;;;2.80;99.90;;;;;;4440729;32;20228;-76
2022/02/20 07:02:10;;;;;;;12.97;4.27;;;2.80;99.90;;;;;;4440211;32;20194;-76
2022/02/20 07:04:37;;;;;;;10.40;3.80;;;2.90;99.90;;;;;;4440524;32;20200;-75
2022/02/20 07:07:04;;;;;;;10.60;4.03;;;3.00;99.90;;;;;;4441078;32;20167;-76
2022/02/20 07:09:32;;;;;;;12.03;3.90;;;3.10;99.90;;;;;;4441343;32;20197;-76
2022/02/20 07:11:59;;;;;;;13.90;4.80;;;3.10;99.90;;;;;;4440652;32;20186;-76
2022/02/20 07:14:26;;;;;;;9.53;4.03;;;3.10;99.90;;;;;;4445710;32;20212;-76
2022/02/20 07:16:53;;;;;;;15.50;4.27;;;3.10;99.90;;;;;;4444416;32;20244;-76
2022/02/20 07:19:20;;;;;;;11.17;4.37;;;3.10;99.90;;;;;;4440783;32;20172;-75
2022/02/20 07:21:47;;;;;;;9.87;4.40;;;3.10;99.90;;;;;;4440351;32;20171;-75
2022/02/20 07:24:14;;;;;;;13.97;4.50;;;3.10;99.90;;;;;;4441430;32;20231;-75
2022/02/20 07:26:41;;;;;;;13.70;4.30;;;3.10;99.90;;;;;;4441986;32;20151;-75
2022/02/20 07:29:08;;;;;;;10.23;3.90;;;3.10;99.90;;;;;;4439579;32;20227;-75
2022/02/20 07:31:36;;;;;;;13.00;4.13;;;3.10;99.90;;;;;;4441502;32;20175;-75
2022/02/20 07:34:03;;;;;;;8.90;3.97;;;3.20;99.90;;;;;;4442305;32;20166;-76
2022/02/20 07:36:30;;;;;;;11.20;4.30;;;3.20;99.90;;;;;;4441567;32;20171;-75
2022/02/20 07:38:57;;;;;;;9.03;4.37;;;3.30;99.90;;;;;;4439988;32;20223;-76
2022/02/20 07:41:25;;;;;;;11.67;4.27;;;3.30;99.90;;;;;;4440686;32;20178;-76
2022/02/20 07:43:52;;;;;;;12.03;4.20;;;3.40;99.90;;;;;;4439757;32;20194;-76
2022/02/20 07:46:21;;;;;;;11.23;4.13;;;3.40;99.90;;;;;;4441271;32;20178;-76
2022/02/20 07:48:49;;;;;;;11.93;4.90;;;3.50;99.90;;;;;;4439507;32;20194;-75
2022/02/20 07:51:16;;;;;;;11.47;4.10;;;3.50;99.90;;;;;;4439910;32;20171;-75
2022/02/20 07:53:43;;;;;;;10.03;4.47;;;3.50;99.90;;;;;;4441082;32;20217;-76
2022/02/20 07:56:12;;;;;;;12.00;4.23;;;3.50;99.90;;;;;;4441065;32;20212;-75
2022/02/20 07:58:39;;;;;;;14.77;4.70;;;3.60;99.90;;;;;;4440386;32;20209;-75
2022/02/20 08:01:06;;;;;;;11.73;4.50;;;3.70;99.90;;;;;;4440819;32;20160;-76
2022/02/20 08:03:34;;;;;;;12.47;4.70;;;3.70;99.90;;;;;;4440427;32;20200;-76
2022/02/20 08:06:03;;;;;;;12.43;4.17;;;3.90;99.90;;;;;;4441675;32;20321;-76
2022/02/20 08:08:31;;;;;;;10.77;4.03;;;3.90;99.90;;;;;;4441379;32;20175;-76
2022/02/20 08:11:00;;;;;;;12.93;4.70;;;4.00;99.90;;;;;;4441363;32;20146;-76
2022/02/20 08:13:27;;;;;;;10.90;4.30;;;4.10;99.90;;;;;;4441721;32;20185;-76
2022/02/20 08:15:54;;;;;;;10.10;4.90;;;4.30;99.90;;;;;;4446561;32;20508;-76
2022/02/20 08:18:21;;;;;;;10.63;4.37;;;4.60;99.90;;;;;;4441476;32;20187;-76
2022/02/20 08:20:49;;;;;;;11.13;4.07;;;4.60;99.90;;;;;;4440562;32;20234;-75
2022/02/20 08:23:36;;;;;;;15.73;4.50;;;4.80;99.90;;;;;;4441457;32;20150;-75
2022/02/20 08:26:03;;;;;;;12.57;4.40;;;4.90;99.90;;;;;;4438966;32;20189;-75
2022/02/20 08:28:30;;;;;;;11.77;4.13;;;5.00;99.90;;;;;;4440798;32;20386;-75
2022/02/20 08:30:57;;;;;;;12.93;4.00;;;4.80;99.90;;;;;;4439822;32;20398;-76
2022/02/20 08:33:24;;;;;;;12.97;4.00;;;4.80;99.90;;;;;;4439139;32;20220;-75
2022/02/20 08:36:11;;;;;;;11.17;4.03;;;4.80;99.90;;;;;;4439590;32;20167;-76
2022/02/20 08:38:38;;;;;;;13.43;4.20;;;4.90;99.90;;;;;;4440712;32;20163;-76
2022/02/20 08:41:05;;;;;;;11.10;4.57;;;5.20;99.90;;;;;;4439316;32;20187;-76
2022/02/20 08:43:32;;;;;;;10.93;3.80;;;5.50;99.90;;;;;;4438025;32;20522;-76
2022/02/20 08:46:00;;;;;;;9.03;3.90;;;5.80;99.90;;;;;;4439069;32;20171;-76
2022/02/20 08:48:30;;;;;;;12.03;4.23;;;6.00;99.90;;;;;;4441585;32;20142;-76
2022/02/20 08:50:57;;;;;;;13.87;4.23;;;6.10;99.90;;;;;;4438255;32;20268;-76
2022/02/20 08:53:24;;;;;;;11.57;4.00;;;6.10;99.90;;;;;;4438532;32;20205;-76
2022/02/20 08:55:51;;;;;;;11.73;4.03;;;6.20;99.90;;;;;;4440031;32;20539;-76
2022/02/20 08:58:18;;;;;;;10.00;3.83;;;6.20;99.90;;;;;;4446584;32;20201;-76
2022/02/20 09:00:45;;;;;;;9.27;3.70;;;6.20;99.90;;;;;;4438217;32;20221;-75
2022/02/20 09:03:12;;;;;;;11.83;4.37;;;6.20;99.90;;;;;;4438432;32;20189;-75
2022/02/20 09:05:39;;;;;;;9.57;4.13;;;6.50;99.90;;;;;;4440029;32;20166;-75
2022/02/20 09:08:06;;;;;;;12.27;4.60;;;6.60;99.90;;;;;;4440524;32;20141;-76
2022/02/20 09:10:33;;;;;;;11.10;4.07;;;6.50;99.90;;;;;;4438278;32;20524;-76
2022/02/20 09:12:59;;;;;;;12.43;4.60;;;6.40;99.90;;;;;;4438332;32;20454;-76
2022/02/20 09:15:26;;;;;;;10.83;4.37;;;6.20;99.90;;;;;;4439837;32;20591;-76
2022/02/20 09:17:54;;;;;;;9.83;3.80;;;6.00;99.90;;;;;;4439498;32;20189;-75
2022/02/20 09:20:21;;;;;;;11.17;4.17;;;5.90;99.90;;;;;;4439647;32;20170;-76
2022/02/20 09:22:48;;;;;;;12.40;4.20;;;5.90;99.90;;;;;;4439240;32;20506;-77
2022/02/20 09:25:15;;;;;;;10.30;4.07;;;5.70;99.90;;;;;;4438031;32;20190;-76
2022/02/20 09:27:42;;;;;;;10.93;3.50;;;5.70;99.90;;;;;;4441304;32;20170;-76
2022/02/20 09:30:10;;;;;;;7.47;3.20;;;5.70;99.90;;;;;;4439625;32;20222;-73
2022/02/20 09:32:37;;;;;;;10.97;3.03;;;5.70;99.90;;;;;;4438147;32;20205;-73
2022/02/20 09:35:04;;;;;;;9.13;3.30;;;5.80;99.90;;;;;;4437767;32;20241;-73
2022/02/20 09:37:32;;;;;;;9.23;3.60;;;5.90;99.90;;;;;;4439855;32;20239;-72
2022/02/20 09:39:59;;;;;;;8.90;3.40;;;5.90;99.90;;;;;;4439779;32;20139;-72
2022/02/20 09:42:26;;;;;;;9.30;3.57;;;6.00;99.90;;;;;;4439721;32;20224;-73
2022/02/20 09:44:54;;;;;;;8.30;3.10;;;6.00;99.90;;;;;;4438785;32;20208;-73
2022/02/20 09:47:26;;;;;;;7.50;3.03;;;6.00;99.90;;;;;;4441138;32;20177;-72
2022/02/20 09:49:58;;;;;;;6.87;2.77;;;6.10;99.90;;;;;;4445838;32;20514;-72
2022/02/20 09:52:26;;;;;;;10.17;3.47;;;6.20;99.90;;;;;;4437983;32;20173;-72
2022/02/20 09:54:53;;;;;;;8.30;3.40;;;6.10;99.90;;;;;;4439916;32;20199;-72
2022/02/20 09:57:20;;;;;;;7.67;3.07;;;6.00;99.90;;;;;;4437512;32;20177;-72
2022/02/20 09:59:47;;;;;;;7.07;2.90;;;5.80;99.90;;;;;;4438540;32;20175;-73
2022/02/20 10:02:16;;;;;;;6.97;3.30;;;5.60;99.90;;;;;;4439081;32;20216;-72
2022/02/20 10:04:54;;;;;;;10.40;3.30;;;5.50;99.90;;;;;;4437516;32;20178;-72
2022/02/20 10:07:26;;;;;;;8.33;3.67;;;5.40;99.90;;;;;;4439380;32;20490;-73
2022/02/20 10:09:54;;;;;;;6.33;3.00;;;5.40;99.90;;;;;;4439333;32;20576;-73
2022/02/20 10:12:23;;;;;;;9.53;3.03;;;5.40;99.90;;;;;;4438881;32;20189;-72
2022/02/20 10:14:50;;;;;;;8.13;3.07;;;5.40;99.90;;;;;;4439411;32;20171;-73
2022/02/20 10:17:21;;;;;;;7.73;3.33;;;5.30;99.90;;;;;;4439339;32;20189;-73
2022/02/20 10:20:00;;;;;;;8.13;3.23;;;5.30;99.90;;;;;;4438249;32;20202;-73
2022/02/20 10:22:29;;;;;;;8.53;3.00;;;5.30;99.90;;;;;;4437533;32;20166;-73
2022/02/20 10:25:11;;;;;;;9.90;3.30;;;5.40;99.90;;;;;;4437763;32;20192;-73
2022/02/20 10:27:52;;;;;;;7.93;2.73;;;5.50;99.90;;;;;;4438347;32;20192;-74
2022/02/20 10:30:29;;;;;;;5.33;2.70;;;5.50;99.90;;;;;;4438990;32;20178;-74
2022/02/20 10:33:05;;;;;;;6.83;3.00;;;5.50;99.90;;;;;;4437029;32;20516;-74
2022/02/20 10:35:34;;;;;;;5.30;2.70;;;5.60;99.90;;;;;;4437689;32;20163;-75
2022/02/20 10:38:09;;;;;;;6.27;2.80;;;5.60;99.90;;;;;;4437736;32;20158;-73
2022/02/20 10:40:37;;;;;;;6.90;3.17;;;5.50;99.90;;;;;;4437062;32;20165;-73
2022/02/20 10:43:06;;;;;;;6.53;2.70;;;5.40;99.90;;;;;;4438452;32;20221;-74
2022/02/20 10:45:39;;;;;;;5.13;2.53;;;5.30;99.90;;;;;;4437605;32;20175;-73
2022/02/20 10:48:19;;;;;;;5.00;2.53;;;5.20;99.90;;;;;;4437313;32;20177;-74
2022/02/20 10:50:57;;;;;;;6.17;2.60;;;5.20;99.90;;;;;;4437959;32;20179;-74
2022/02/20 10:53:31;;;;;;;6.23;2.80;;;5.10;99.90;;;;;;4437226;32;20204;-74
2022/02/20 10:56:02;;;;;;;4.40;2.37;;;4.90;99.90;;;;;;4438709;32;20571;-73
2022/02/20 10:58:31;;;;;;;4.60;2.37;;;4.90;99.90;;;;;;4438080;32;20552;-73
2022/02/20 11:01:00;;;;;;;4.83;2.27;;;4.80;99.90;;;;;;4449630;32;20174;-74
2022/02/20 11:03:30;;;;;;;4.57;2.40;;;4.80;99.90;;;;;;4440654;32;20195;-74
2022/02/20 11:05:58;;;;;;;5.13;2.60;;;4.70;99.90;;;;;;4445158;32;20165;-73
2022/02/20 11:08:29;;;;;;;6.90;2.57;;;4.70;99.90;;;;;;4443540;32;20474;-73
2022/02/20 11:10:56;;;;;;;5.30;2.70;;;4.60;99.90;;;;;;4442992;32;20178;-73
2022/02/20 11:13:25;;;;;;;4.10;2.30;;;4.50;99.90;;;;;;4442835;32;20198;-73
2022/02/20 11:15:54;;;;;;;5.47;2.77;;;4.50;99.90;;;;;;4441480;32;20162;-73
2022/02/20 11:18:22;;;;;;;5.23;2.70;;;4.40;99.90;;;;;;4441989;32;20188;-73
2022/02/20 11:20:53;;;;;;;4.47;2.60;;;4.30;99.90;;;;;;4439640;32;20174;-73
2022/02/20 11:23:28;;;;;;;5.40;2.80;;;4.30;99.90;;;;;;4440955;32;20447;-73
2022/02/20 11:25:58;;;;;;;5.53;2.90;;;4.30;99.90;;;;;;4441352;32;20192;-73
2022/02/20 11:28:25;;;;;;;7.30;3.33;;;4.20;99.90;;;;;;4441054;32;20202;-73
2022/02/20 11:30:52;;;;;;;7.80;3.20;;;4.20;99.90;;;;;;4440185;32;20194;-73
2022/02/20 11:33:20;;;;;;;7.07;3.17;;;4.10;99.90;;;;;;4441585;32;20174;-73
2022/02/20 11:35:50;;;;;;;7.00;3.63;;;4.10;99.90;;;;;;4440289;32;20184;-73
2022/02/20 11:38:19;;;;;;;5.60;3.43;;;4.20;99.90;;;;;;4440085;32;20443;-73
2022/02/20 11:40:52;;;;;;;5.40;3.20;;;4.10;99.90;;;;;;4440935;32;20179;-72
2022/02/20 11:43:21;;;;;;;6.33;3.10;;;4.00;99.90;;;;;;4441234;32;20137;-72
2022/02/20 11:46:06;;;;;;;6.07;3.37;;;4.00;99.90;;;;;;4442728;32;20178;-72
2022/02/20 11:48:34;;;;;;;6.00;3.47;;;4.00;99.90;;;;;;4441484;32;20174;-73
2022/02/20 11:51:12;;;;;;;5.43;3.40;;;4.00;99.90;;;;;;4442080;32;20163;-72
2022/02/20 11:53:40;;;;;;;7.47;3.60;;;3.90;99.90;;;;;;4439175;32;20522;-72
2022/02/20 11:56:11;;;;;;;5.73;3.57;;;3.90;99.90;;;;;;4442212;32;20142;-72
2022/02/20 11:58:44;;;;;;;5.87;3.53;;;3.80;99.90;;;;;;4441044;32;20233;-72
2022/02/20 12:01:12;;;;;;;6.10;3.60;;;3.80;99.90;;;;;;4439358;32;20527;-72
2022/02/20 12:03:42;;;;;;;6.10;3.80;;;3.80;99.90;;;;;;4439655;32;20180;-73
2022/02/20 12:06:17;;;;;;;6.30;3.53;;;3.80;99.90;;;;;;4439169;32;20225;-72
2022/02/20 12:08:56;;;;;;;6.17;3.70;;;3.70;99.90;;;;;;4442283;32;20158;-72
2022/02/20 12:11:26;;;;;;;5.57;3.33;;;3.70;99.90;;;;;;4438991;32;20202;-73
2022/02/20 12:14:12;;;;;;;6.63;3.77;;;3.70;99.90;;;;;;4442297;32;20500;-73
2022/02/20 12:16:40;;;;;;;6.87;3.60;;;3.70;99.90;;;;;;4445978;32;20198;-73
2022/02/20 12:19:21;;;;;;;6.07;3.73;;;3.70;99.90;;;;;;4442075;32;20185;-73
2022/02/20 12:22:08;;;;;;;5.23;3.57;;;3.70;99.90;;;;;;4440994;32;20175;-73
2022/02/20 12:24:38;;;;;;;6.60;3.87;;;3.70;99.90;;;;;;4439183;32;20166;-72
2022/02/20 12:27:05;;;;;;;5.43;3.90;;;3.70;99.90;;;;;;4439357;32;20226;-72
2022/02/20 12:29:39;;;;;;;6.30;4.13;;;3.70;99.90;;;;;;4440994;32;20150;-73
2022/02/20 12:32:21;;;;;;;6.10;3.90;;;3.70;99.90;;;;;;4438466;32;20214;-73
2022/02/20 12:34:57;;;;;;;6.73;4.10;;;3.80;99.90;;;;;;4440183;32;20239;-73
2022/02/20 12:37:54;;;;;;;7.20;4.27;;;3.80;99.90;;;;;;4438643;32;20242;-74
2022/02/20 12:40:22;;;;;;;5.87;4.30;;;3.80;99.90;;;;;;4440496;32;20158;-73
2022/02/20 12:42:59;;;;;;;8.20;4.63;;;3.70;99.90;;;;;;4451033;32;20190;-73
2022/02/20 12:45:28;;;;;;;7.07;4.67;;;3.70;99.90;;;;;;4440196;32;20150;-75
2022/02/20 12:47:57;;;;;;;7.23;4.50;;;3.80;99.90;;;;;;4438455;32;20462;-74
2022/02/20 12:50:27;;;;;;;7.63;4.90;;;3.80;99.90;;;;;;4439694;32;20253;-75
2022/02/20 12:52:55;;;;;;;7.33;4.70;;;3.80;99.90;;;;;;4439923;32;20493;-75
2022/02/20 12:55:23;;;;;;;8.00;4.70;;;3.80;99.90;;;;;;4440355;32;20179;-75
2022/02/20 12:58:00;;;;;;;7.53;4.80;;;3.90;99.90;;;;;;4439125;32;20175;-75
2022/02/20 13:00:38;;;;;;;6.87;4.63;;;3.90;99.90;;;;;;4440618;32;20233;-75